Latest Weather Observations for Robe Airport

IDS60801

Issued at 11:31 pm CST Friday 4 September 2015 (issued every 30 minutes, with the page automatically refreshed every 10 minutes)

About weather observations | Map of weather stations | Latest weather observations for SA | Other Formats
Station Details ID: 026105 Name: ROBE AIRFIELD Lat: -37.18 Lon: 139.81 Height: 3.0 m
Data from the previous 72 hours. | See also: Recent months at Robe Airport
Date/Time
CST
Temp
°C
App
Temp
°C
Dew
Point
Rel
Hum
%
Delta-T
°C
Wind Press
QNH
hPa
Press
MSL
hPa
Rain
since 9 am
mm
Dir
 
Spd
km/h
Gust
km/h
Spd
kts
Gust
kts
04/11:30pm 9.7 8.7 5.5 75 1.9 CALM 0 0 0 0 1026.1 1026.1 0.0
04/11:00pm 10.2 8.7 5.0 70 2.3 SSW 2 6 1 3 1026.6 1026.6 0.0
04/10:30pm 10.5 9.4 5.1 69 2.4 CALM 0 6 0 3 1026.8 1026.8 0.0
04/10:00pm 10.3 8.8 5.1 70 2.4 SW 2 6 1 3 1027.0 1027.0 0.0
04/09:30pm 10.2 8.9 5.8 74 2.0 W 2 2 1 1 1027.0 1027.0 0.0
04/09:00pm 10.3 9.0 6.1 75 1.9 SW 2 4 1 2 1026.9 1026.9 0.0
04/08:30pm 10.2 8.4 5.6 73 2.1 S 4 4 2 2 1026.8 1026.8 0.0
04/08:00pm 10.3 8.1 5.5 72 2.2 S 6 13 3 7 1026.7 1026.7 0.0
04/07:30pm 10.3 8.9 5.5 72 2.2 SW 2 4 1 2 1026.6 1026.6 0.0
04/07:00pm 10.5 8.4 5.9 73 2.1 SW 6 7 3 4 1026.6 1026.6 0.0
04/06:30pm 10.6 8.4 5.2 69 2.4 SW 6 11 3 6 1026.6 1026.6 0.0
04/06:00pm 10.8 9.0 5.3 69 2.5 SSW 4 6 2 3 1026.5 1026.5 0.0
04/05:30pm 11.5 9.3 5.4 66 2.8 SW 6 9 3 5 1026.3 1026.3 0.0
04/05:00pm 11.6 9.3 5.0 64 3.0 SSW 6 7 3 4 1026.1 1026.1 0.0
04/04:30pm 11.8 9.2 5.9 67 2.7 SSW 9 13 5 7 1026.0 1026.0 0.0
04/04:00pm 12.0 8.6 6.1 67 2.8 SW 13 17 7 9 1026.1 1026.1 0.0
04/03:30pm 12.5 9.9 5.9 64 3.1 SW 9 17 5 9 1026.1 1026.1 0.0
04/03:00pm 12.7 9.8 6.3 65 3.0 SW 11 19 6 10 1026.1 1026.1 0.0
04/02:30pm 13.7 10.0 6.3 61 3.5 SW 15 20 8 11 1026.1 1026.1 0.0
04/02:00pm 12.7 9.5 5.1 60 3.5 WSW 11 24 6 13 1026.2 1026.2 0.0
04/01:30pm 12.8 9.5 4.8 58 3.7 WSW 11 17 6 9 1026.4 1026.4 0.0
04/01:00pm 13.2 10.8 5.1 58 3.8 WSW 7 13 4 7 1026.4 1026.4 0.0
04/12:30pm 13.6 11.1 4.7 55 4.1 SSW 7 15 4 8 1026.7 1026.7 0.0
04/12:00pm 13.3 10.8 4.7 56 3.9 S 7 15 4 8 1027.2 1027.2 0.0
04/11:30am 13.0 10.1 4.7 57 3.8 SW 9 15 5 8 1027.5 1027.5 0.0
04/11:00am 12.8 10.3 4.8 58 3.7 SSW 7 11 4 6 1027.8 1027.8 0.0
04/10:30am 13.6 11.7 6.5 62 3.4 WSW 6 9 3 5 1028.0 1028.0 0.0
04/10:00am 12.6 10.2 4.1 56 3.8 SSE 6 9 3 5 1028.1 1028.1 0.0
04/09:30am 12.3 11.0 4.3 58 3.6 CALM 0 0 0 0 1028.3 1028.3 0.0
04/09:00am 11.5 9.9 4.5 62 3.1 SSW 2 6 1 3 1028.4 1028.4 0.2
04/08:30am 11.2 10.1 5.3 67 2.7 CALM 0 0 0 0 1028.5 1028.5 0.2
04/08:00am 10.6 9.6 5.6 71 2.3 CALM 0 0 0 0 1028.2 1028.2 0.2
04/07:30am 9.6 8.5 5.2 74 2.0 CALM 0 0 0 0 1027.9 1027.9 0.2
04/07:00am 9.0 7.6 5.7 80 1.5 S 2 6 1 3 1027.5 1027.5 0.2
04/06:30am 9.0 6.8 5.4 78 1.6 SSE 6 6 3 3 1027.3 1027.3 0.2
04/06:00am 9.2 7.2 4.6 73 2.0 SSE 4 6 2 3 1026.9 1026.9 0.2
04/05:30am 9.3 7.0 4.9 74 2.0 SSE 6 11 3 6 1026.9 1026.9 0.2
04/05:00am 9.1 7.4 5.8 80 1.5 ESE 4 4 2 2 1026.6 1026.6 0.2
04/04:30am 9.4 7.6 5.6 77 1.7 SW 4 4 2 2 1026.3 1026.3 0.2
04/04:00am 9.6 7.8 5.2 74 2.0 SW 4 4 2 2 1026.0 1026.0 0.2
04/03:30am 10.0 7.7 4.8 70 2.3 SW 6 9 3 5 1026.0 1026.0 0.2
04/03:00am 9.9 7.5 4.5 69 2.4 SSW 6 7 3 4 1026.1 1026.1 0.2
04/02:30am 9.9 7.4 4.7 70 2.3 SSW 7 9 4 5 1026.2 1026.2 0.2
04/02:00am 9.8 7.1 5.4 74 2.0 S 9 11 5 6 1026.4 1026.4 0.2
04/01:30am 10.4 6.4 4.8 68 2.5 S 15 19 8 10 1026.6 1026.6 0.2
04/01:00am 10.1 7.5 5.9 75 1.9 S 9 13 5 7 1026.4 1026.4 0.2
04/12:30am 10.0 8.0 6.9 81 1.4 S 7 9 4 5 1026.2 1026.2 0.2
04/12:00am 10.4 8.1 7.5 82 1.4 SSE 9 11 5 6 1026.2 1026.2 0.2
 
Date/Time
CST
Temp
°C
App
Temp
°C
Dew
Point
Rel
Hum
%
Delta-T
°C
Wind Press
QNH
hPa
Press
MSL
hPa
Rain
since 9 am
mm
Dir
 
Spd
km/h
Gust
km/h
Spd
kts
Gust
kts
03/11:30pm 10.2 7.9 7.6 84 1.2 SSE 9 15 5 8 1026.3 1026.3 0.2
03/11:00pm 10.0 8.1 7.4 84 1.2 S 7 9 4 5 1026.3 1026.3 0.2
03/10:30pm 10.0 7.2 7.1 82 1.4 S 11 15 6 8 1026.2 1026.2 0.2
03/10:00pm 10.2 6.7 7.4 83 1.3 SSW 15 20 8 11 1026.2 1026.2 0.2
03/09:30pm 9.8 7.2 7.7 87 1.0 SSW 11 15 6 8 1026.0 1026.0 0.2
03/09:00pm 10.2 8.7 8.3 88 0.9 SSE 6 11 3 6 1025.9 1025.9 0.2
03/08:30pm 10.4 7.5 8.3 87 1.0 SSE 13 19 7 10 1025.6 1025.6 0.2
03/08:00pm 9.4 7.5 7.7 89 0.8 S 7 9 4 5 1025.3 1025.3 0.2
03/07:30pm 8.6 6.1 6.6 87 0.9 S 9 11 5 6 1025.0 1025.0 0.2
03/07:00pm 9.3 6.5 6.9 85 1.1 S 11 15 6 8 1024.8 1024.8 0.2
03/06:30pm 9.8 6.7 7.1 83 1.3 S 13 17 7 9 1024.4 1024.4 0.2
03/06:00pm 10.8 7.8 7.5 80 1.6 S 13 19 7 10 1023.9 1023.9 0.2
03/05:30pm 10.6 7.3 6.6 76 1.9 SSE 13 19 7 10 1023.6 1023.6 0.2
03/05:00pm 11.9 7.0 7.0 72 2.3 SSE 22 30 12 16 1023.2 1023.2 0.2
03/04:30pm 12.5 7.5 8.0 74 2.2 S 24 35 13 19 1022.8 1022.8 0.2
03/04:00pm 12.3 6.5 8.0 75 2.1 S 28 35 15 19 1022.5 1022.5 0.2
03/03:30pm 12.8 7.7 9.1 78 1.9 S 26 39 14 21 1022.2 1022.2 0.2
03/03:00pm 13.0 8.4 9.8 81 1.6 S 24 35 13 19 1022.1 1022.1 0.2
03/02:30pm 13.2 7.4 9.5 78 1.9 S 30 37 16 20 1021.7 1021.7 0.2
03/02:00pm 14.2 8.1 9.8 75 2.3 S 32 43 17 23 1021.2 1021.2 0.2
03/01:30pm 14.7 9.3 10.9 78 2.0 S 30 43 16 23 1020.9 1020.9 0.2
03/01:00pm 13.4 7.7 9.8 79 1.8 S 30 39 16 21 1020.9 1020.9 0.2
03/12:30pm 12.5 7.4 10.6 88 1.0 S 28 39 15 21 1020.9 1020.9 0.2
03/12:00pm 13.0 6.8 10.0 82 1.5 S 33 43 18 23 1020.8 1020.8 0.2
03/11:30am 13.3 7.9 11.0 86 1.2 S 30 39 16 21 1020.7 1020.7 0.2
03/11:00am 13.1 7.7 11.0 87 1.1 S 30 39 16 21 1020.3 1020.3 0.0
03/10:30am 12.7 7.0 11.3 91 0.7 S 32 41 17 22 1020.1 1020.1 0.0
03/10:00am 12.7 8.3 11.6 93 0.6 S 26 39 14 21 1019.7 1019.7 0.0
03/09:30am 12.9 7.7 11.5 91 0.7 S 30 41 16 22 1019.2 1019.2 0.0
03/09:00am 13.2 7.5 11.3 88 1.0 S 32 43 17 23 1018.6 1018.6 3.0
03/08:30am 13.1 8.6 11.3 89 0.9 S 26 43 14 23 1018.2 1018.2 3.0
03/08:00am 13.1 9.0 11.5 90 0.8 S 24 37 13 20 1017.4 1017.4 3.0
03/07:30am 12.7 8.8 10.9 89 0.9 S 22 30 12 16 1016.5 1016.5 3.0
03/07:00am 11.9 8.2 10.1 89 0.9 S 20 30 11 16 1015.8 1015.8 3.0
03/06:30am 11.3 8.0 9.7 90 0.8 S 17 20 9 11 1015.1 1015.1 3.0
03/06:00am 11.9 7.8 10.1 89 0.9 S 22 30 12 16 1014.4 1014.4 3.0
03/05:30am 12.2 8.6 10.6 90 0.8 S 20 30 11 16 1013.9 1013.9 3.0
03/05:00am 12.0 8.3 10.2 89 0.9 S 20 30 11 16 1013.2 1013.2 3.0
03/04:30am 11.9 8.2 10.3 90 0.8 S 20 28 11 15 1012.4 1012.4 3.0
03/04:00am 12.0 8.0 10.6 91 0.7 S 22 30 12 16 1011.8 1011.8 3.0
03/03:30am 11.9 7.9 10.6 92 0.7 S 22 33 12 18 1011.2 1011.2 3.0
03/03:00am 11.7 8.3 10.4 92 0.7 S 19 28 10 15 1010.9 1010.9 3.0
03/02:30am 11.5 8.4 10.2 92 0.7 S 17 24 9 13 1010.6 1010.6 3.0
03/02:00am 11.5 7.5 10.4 93 0.6 S 22 32 12 17 1010.3 1010.3 3.0
03/01:30am 11.6 8.0 10.7 94 0.5 S 20 30 11 16 1010.1 1010.1 3.0
03/01:00am 11.6 7.8 11.0 96 0.3 SSW 22 32 12 17 1010.2 1010.2 3.0
03/12:30am 11.2 7.8 10.7 97 0.3 SSW 19 24 10 13 1010.1 1010.1 3.0
03/12:00am 10.7 10.1 10.4 98 0.2 S 4 15 2 8 1009.9 1009.9 2.8
 
Date/Time
CST
Temp
°C
App
Temp
°C
Dew
Point
Rel
Hum
%
Delta-T
°C
Wind Press
QNH
hPa
Press
MSL
hPa
Rain
since 9 am
mm
Dir
 
Spd
km/h
Gust
km/h
Spd
kts
Gust
kts
02/11:30pm 9.8 9.3 9.3 97 0.2 S 2 4 1 2 1009.8 1009.8 2.8
02/11:00pm 9.6 9.4 9.1 97 0.2 CALM 0 0 0 0 1009.6 1009.6 2.8
02/10:30pm 9.7 9.5 9.2 97 0.2 CALM 0 0 0 0 1009.5 1009.5 2.6
02/10:00pm 9.8 9.7 9.3 97 0.2 CALM 0 0 0 0 1009.3 1009.3 2.4
02/09:30pm 9.7 8.8 9.2 97 0.2 SE 4 6 2 3 1009.2 1009.2 2.4
02/09:00pm 9.6 8.2 9.0 96 0.3 SSE 6 7 3 4 1008.8 1008.8 2.2
02/08:30pm 9.6 8.6 9.0 96 0.3 SE 4 6 2 3 1008.3 1008.3 2.0
02/08:00pm 9.8 8.3 9.2 96 0.3 SE 7 11 4 6 1007.9 1007.9 2.0
02/07:30pm 10.1 7.9 9.3 95 0.4 SSE 11 17 6 9 1007.7 1007.7 1.4
02/07:00pm 10.2 8.0 9.3 94 0.4 ESE 11 13 6 7 1006.9 1006.9 1.0
02/06:30pm 10.8 9.0 9.4 91 0.7 ESE 9 15 5 8 1006.3 1006.3 0.6
02/06:00pm 11.7 10.5 9.4 86 1.2 ESE 6 7 3 4 1005.7 1005.7 0.4
02/05:30pm 12.3 11.0 9.9 85 1.2 E 7 13 4 7 1005.1 1005.1 0.4
02/05:00pm 12.3 11.2 9.9 85 1.2 ESE 6 11 3 6 1004.8 1004.8 0.4
02/04:30pm 12.3 10.6 9.7 84 1.3 E 9 15 5 8 1004.7 1004.7 0.4
02/04:00pm 12.9 11.0 10.6 86 1.2 E 11 15 6 8 1004.3 1004.3 0.4
02/03:30pm 11.9 10.6 10.1 89 0.9 E 7 11 4 6 1004.0 1004.0 0.2
02/03:00pm 12.1 9.7 10.2 88 1.0 E 13 19 7 10 1004.0 1004.0 0.0
02/02:30pm 12.0 9.3 10.4 90 0.8 ENE 15 22 8 12 1003.7 1003.7 0.0
02/02:00pm 12.4 10.0 10.0 85 1.2 ENE 13 20 7 11 1003.7 1003.7 0.0
02/01:30pm 12.7 10.0 10.4 86 1.2 NE 15 19 8 10 1003.8 1003.8 0.0
02/01:00pm 11.6 8.4 9.9 89 0.9 NE 17 22 9 12 1004.4 1004.4 0.0
02/12:30pm 11.3 8.4 9.7 90 0.8 NE 15 19 8 10 1004.8 1004.8 0.0
02/12:00pm 11.3 8.5 9.9 91 0.7 NNE 15 22 8 12 1005.2 1005.2 0.0
02/11:30am 11.2 8.7 9.8 91 0.7 NE 13 17 7 9 1005.8 1005.8 0.0
02/11:00am 11.3 7.7 9.7 90 0.8 NNE 19 26 10 14 1006.3 1006.3 0.0
02/10:30am 11.5 8.0 10.2 92 0.7 NNE 19 22 10 12 1006.0 1006.0 0.0
02/10:00am 11.4 8.4 10.5 94 0.5 NE 17 24 9 13 1005.3 1005.3 0.0
02/09:30am 11.0 7.9 10.4 96 0.3 NE 17 24 9 13 1005.5 1005.5 0.0
02/09:00am 10.8 7.7 10.3 97 0.3 NE 17 22 9 12 1006.0 1006.0 6.4
02/08:30am 10.2 7.3 9.7 97 0.3 NNE 15 20 8 11 1006.4 1006.4 6.4
02/08:00am 9.9 6.6 9.4 97 0.2 NE 17 22 9 12 1005.7 1005.7 6.4
02/07:30am 9.7 6.7 9.2 97 0.2 NNE 15 24 8 13 1005.9 1005.9 6.2
02/07:00am 9.7 5.7 9.1 96 0.3 NNE 20 26 11 14 1006.3 1006.3 4.4
02/06:30am 9.8 6.0 9.0 95 0.4 NNE 19 26 10 14 1006.0 1006.0 3.6
02/06:00am 9.9 6.1 9.0 94 0.4 NNE 19 26 10 14 1006.0 1006.0 3.0
02/05:30am 10.2 6.8 9.3 94 0.4 NNE 17 28 9 15 1005.8 1005.8 3.0
02/05:00am 10.5 7.2 9.4 93 0.5 N 17 20 9 11 1005.9 1005.9 2.0
02/04:30am 10.7 7.3 9.1 90 0.8 N 17 26 9 14 1006.2 1006.2 1.4
02/04:00am 11.8 7.1 7.7 76 2.0 N 22 30 12 16 1006.1 1006.1 0.8
02/03:30am 12.9 8.0 6.9 67 2.9 N 22 32 12 17 1006.1 1006.1 0.6
02/03:00am 12.9 7.7 7.1 68 2.8 N 24 33 13 18 1006.5 1006.5 0.6
02/02:30am 12.5 7.1 7.8 73 2.3 N 26 35 14 19 1006.9 1006.9 0.6
02/02:00am 12.6 5.9 8.3 75 2.1 N 33 48 18 26 1007.5 1007.5 0.6
02/01:48am 13.5 6.6 6.6 63 3.3 N 32 54 17 29 1007.7 1007.7 0.6
02/01:47am 13.4 6.5 6.5 63 3.3 N 32 46 17 25 1007.7 1007.7 0.6
02/01:30am 13.6 9.2 6.5 62 3.4 N 19 26 10 14 1007.3 1007.3 0.6
02/01:00am 12.1 9.5 7.8 75 2.1 NE 11 15 6 8 1007.0 1007.0 0.6
02/12:30am 11.9 9.4 8.4 79 1.7 NNE 11 15 6 8 1007.0 1007.0 0.6
02/12:00am 12.0 8.9 8.8 81 1.6 NE 15 19 8 10 1007.1 1007.1 0.6

Other Formats:

Comma delimited format used in spreadsheet applications
http://www.bom.gov.au/fwo/IDS60801/IDS60801.95816.axf

JavaScript Object Notation format (JSON) in row-major order
http://www.bom.gov.au/fwo/IDS60801/IDS60801.95816.json